createdAt,value
2019-05-16T00:00:10.477Z,52.73
2019-05-16T00:02:39.009Z,49.05
2019-05-16T00:05:08.682Z,40.40
2019-05-16T00:07:38.942Z,42.95
2019-05-16T00:10:08.693Z,47.45
2019-05-16T00:12:39.831Z,40.17
2019-05-16T00:15:09.038Z,52.90
2019-05-16T00:17:38.570Z,41.95
2019-05-16T00:20:09.392Z,39.03
2019-05-16T00:22:39.388Z,39.63
2019-05-16T00:25:08.901Z,49.70
2019-05-16T00:27:38.693Z,57.33
2019-05-16T00:30:08.981Z,41.37
2019-05-16T00:32:38.963Z,52.27
2019-05-16T00:35:09.194Z,52.43
2019-05-16T00:37:39.033Z,47.53
2019-05-16T00:40:08.324Z,71.20
2019-05-16T00:42:39.195Z,53.28
2019-05-16T00:45:09.155Z,52.48
2019-05-16T00:47:38.960Z,42.43
2019-05-16T00:50:08.878Z,47.77
2019-05-16T00:52:39.343Z,44.33
2019-05-16T00:55:08.499Z,45.77
2019-05-16T00:57:38.988Z,44.35
2019-05-16T01:00:10.932Z,50.65
2019-05-16T01:05:08.676Z,51.50
2019-05-16T01:07:39.108Z,56.02
2019-05-16T01:10:09.165Z,45.85
2019-05-16T01:12:39.112Z,43.00
2019-05-16T01:15:08.953Z,47.40
2019-05-16T01:17:39.085Z,46.13
2019-05-16T01:20:08.691Z,50.40
2019-05-16T01:22:38.586Z,53.83
2019-05-16T01:25:09.401Z,63.98
2019-05-16T01:27:38.689Z,49.43
2019-05-16T01:30:09.309Z,55.90
2019-05-16T01:32:39.121Z,71.92
2019-05-16T01:35:08.661Z,67.30
2019-05-16T01:37:38.361Z,62.50
2019-05-16T01:40:08.490Z,82.40
2019-05-16T01:42:38.654Z,54.67
2019-05-16T01:45:08.428Z,51.37
2019-05-16T01:47:39.321Z,49.75
2019-05-16T01:50:08.845Z,55.13
2019-05-16T01:52:38.249Z,54.05
2019-05-16T01:55:08.296Z,52.03
2019-05-16T01:57:39.097Z,42.38
2019-05-16T02:00:08.596Z,50.95
2019-05-16T02:02:38.496Z,47.60
2019-05-16T02:05:08.574Z,52.95
2019-05-16T02:07:38.788Z,49.15
2019-05-16T02:10:09.820Z,45.35
2019-05-16T02:12:38.729Z,49.17
2019-05-16T02:15:08.076Z,39.50
2019-05-16T02:17:38.439Z,54.05
2019-05-16T02:20:08.734Z,47.25
2019-05-16T02:22:39.021Z,53.87
2019-05-16T02:25:08.202Z,39.63
2019-05-16T02:27:40.586Z,54.50
2019-05-16T02:30:07.620Z,68.75
2019-05-16T02:32:36.114Z,68.47
2019-05-16T02:35:06.381Z,47.80
2019-05-16T02:37:35.376Z,52.27
2019-05-16T02:40:12.136Z,48.08
2019-05-16T02:42:42.082Z,50.23
2019-05-16T02:45:11.183Z,40.57
2019-05-16T02:47:42.439Z,51.25
2019-05-16T02:50:12.279Z,47.13
2019-05-16T02:52:41.553Z,53.15
2019-05-16T02:55:11.926Z,49.33
2019-05-16T02:57:41.484Z,52.15
2019-05-16T03:00:12.319Z,63.50
2019-05-16T03:02:42.002Z,69.27
2019-05-16T03:05:12.351Z,65.57
2019-05-16T03:07:47.070Z,62.83
2019-05-16T03:10:15.189Z,58.92
2019-05-16T03:12:44.016Z,52.80
2019-05-16T03:15:13.232Z,59.45
2019-05-16T03:17:44.440Z,70.20
2019-05-16T03:20:13.670Z,62.27
2019-05-16T03:22:43.013Z,73.60
2019-05-16T03:25:11.977Z,91.97
2019-05-16T03:27:41.574Z,64.55
2019-05-16T03:30:15.850Z,75.90
2019-05-16T03:32:45.147Z,74.80
2019-05-16T03:35:15.681Z,82.03
2019-05-16T03:37:55.099Z,75.65
2019-05-16T03:40:17.191Z,78.40
2019-05-16T03:42:45.692Z,78.05
2019-05-16T03:45:14.339Z,73.45
2019-05-16T03:47:43.116Z,61.70
2019-05-16T03:50:13.334Z,54.65
2019-05-16T03:52:43.501Z,53.15
2019-05-16T03:55:12.411Z,50.10
2019-05-16T03:57:41.788Z,68.03
2019-05-16T04:00:11.825Z,59.98
2019-05-16T04:02:44.732Z,62.67
2019-05-16T04:05:12.160Z,65.12
2019-05-16T04:07:41.881Z,59.08
2019-05-16T04:10:11.479Z,46.83
2019-05-16T04:12:42.017Z,40.05
2019-05-16T04:15:11.629Z,40.45
2019-05-16T04:17:41.330Z,41.37
2019-05-16T04:20:11.837Z,64.10
2019-05-16T04:22:40.958Z,65.42
2019-05-16T04:25:11.240Z,59.64
2019-05-16T04:27:41.604Z,74.77
2019-05-16T04:30:11.723Z,76.02
2019-05-16T04:32:41.988Z,44.70
2019-05-16T04:35:11.612Z,51.60
2019-05-16T04:37:42.276Z,48.73
2019-05-16T04:40:12.115Z,57.20
2019-05-16T04:42:41.903Z,58.57
2019-05-16T04:45:11.835Z,41.02
2019-05-16T04:47:41.579Z,40.83
2019-05-16T04:56:21.290Z,44.83
2019-05-16T04:58:51.081Z,42.25
2019-05-16T05:01:21.211Z,57.03
2019-05-16T05:04:01.943Z,37.55
2019-05-16T05:06:20.796Z,49.98
2019-05-16T05:08:57.941Z,42.70
2019-05-16T05:11:21.599Z,41.08
2019-05-16T05:13:50.633Z,51.75
2019-05-16T05:16:20.343Z,60.03
2019-05-16T05:18:51.557Z,38.65
2019-05-16T05:21:20.936Z,44.88
2019-05-16T05:23:50.854Z,72.67
2019-05-16T05:26:20.075Z,59.73
2019-05-16T05:28:50.593Z,78.20
2019-05-16T05:31:24.392Z,74.37
2019-05-16T05:33:50.693Z,112.40
2019-05-16T05:36:21.104Z,99.58
2019-05-16T05:39:06.198Z,90.97
2019-05-16T05:41:19.979Z,73.12
2019-05-16T05:43:50.395Z,61.90
2019-05-16T05:46:20.485Z,50.65
2019-05-16T05:48:50.520Z,45.03
2019-05-16T05:51:20.700Z,37.20
2019-05-16T05:53:51.013Z,32.05
2019-05-16T05:56:19.830Z,36.63
2019-05-16T05:58:50.981Z,37.73
2019-05-16T06:01:20.621Z,38.13
2019-05-16T06:03:50.562Z,39.27
2019-05-16T06:06:21.020Z,56.37
2019-05-16T06:08:50.335Z,49.70
2019-05-16T06:11:20.467Z,51.75
2019-05-16T06:13:49.984Z,47.62
2019-05-16T06:16:20.490Z,38.42
2019-05-16T06:18:50.245Z,40.37
2019-05-16T06:21:20.315Z,38.97
2019-05-16T06:23:50.939Z,44.35
2019-05-16T06:26:20.410Z,44.70
2019-05-16T06:28:50.443Z,37.17
2019-05-16T06:31:22.163Z,36.68
2019-05-16T06:33:50.235Z,32.20
2019-05-16T06:36:20.429Z,35.63
2019-05-16T06:38:49.820Z,32.80
2019-05-16T06:41:19.993Z,33.48
2019-05-16T06:43:50.744Z,32.98
2019-05-16T06:46:20.112Z,33.90
2019-05-16T06:48:50.647Z,41.13
2019-05-16T06:51:20.056Z,42.60
2019-05-16T06:53:50.019Z,35.30
2019-05-16T06:56:20.025Z,31.90
2019-05-16T06:58:51.751Z,32.25
2019-05-16T07:01:20.836Z,37.23
2019-05-16T07:03:50.751Z,40.67
2019-05-16T07:06:45.441Z,41.20
2019-05-16T07:08:50.764Z,54.65
2019-05-16T07:11:20.225Z,59.08
2019-05-16T07:13:51.954Z,53.58
2019-05-16T07:16:20.604Z,42.48
2019-05-16T07:18:50.612Z,42.93
2019-05-16T07:21:20.141Z,44.98
2019-05-16T07:23:51.075Z,38.95
2019-05-16T07:26:20.540Z,38.08
2019-05-16T07:28:51.578Z,39.42
2019-05-16T07:31:22.276Z,42.58
2019-05-16T07:33:50.354Z,37.60
2019-05-16T07:36:20.891Z,39.58
2019-05-16T07:38:50.694Z,46.80
2019-05-16T07:41:20.447Z,50.43
2019-05-16T07:43:50.611Z,43.98
2019-05-16T07:46:20.738Z,43.08
2019-05-16T07:48:51.674Z,42.85
2019-05-16T07:51:20.556Z,38.65
2019-05-16T07:53:50.490Z,40.30
2019-05-16T07:56:20.448Z,39.88
2019-05-16T07:58:50.746Z,41.83
2019-05-16T08:01:20.093Z,38.17
2019-05-16T08:03:50.855Z,38.67
2019-05-16T08:06:20.129Z,34.83
2019-05-16T08:08:51.111Z,36.98
2019-05-16T08:11:23.245Z,36.50
2019-05-16T08:13:50.714Z,32.80
2019-05-16T08:16:20.784Z,31.93
2019-05-16T08:18:50.653Z,35.45
2019-05-16T08:21:20.220Z,32.42
2019-05-16T08:26:21.995Z,26.17
2019-05-16T08:28:50.544Z,23.00
2019-05-16T08:31:21.539Z,25.55
2019-05-16T08:33:54.190Z,26.77
2019-05-16T08:36:20.925Z,30.08
2019-05-16T08:38:51.554Z,26.85
2019-05-16T08:41:22.158Z,25.48
2019-05-16T08:43:53.430Z,26.57
2019-05-16T08:46:20.918Z,28.90
2019-05-16T08:48:53.856Z,27.35
2019-05-16T08:51:22.199Z,42.20
2019-05-16T08:53:50.587Z,53.83
2019-05-16T08:56:22.272Z,63.70
2019-05-16T08:58:53.981Z,75.30
2019-05-16T09:01:21.763Z,71.37
2019-05-16T09:03:52.140Z,61.60
2019-05-16T09:06:22.817Z,40.37
2019-05-16T09:08:50.380Z,45.75
2019-05-16T09:10:26.225Z,34.50
2019-05-16T09:11:33.980Z,45.92
2019-05-16T09:13:49.069Z,69.67
2019-05-16T09:16:18.400Z,79.10
2019-05-16T09:18:47.019Z,61.88
2019-05-16T09:21:18.291Z,56.40
2019-05-16T09:23:46.963Z,62.80
2019-05-16T09:26:18.966Z,65.32
2019-05-16T09:28:48.229Z,53.00
2019-05-16T09:31:17.899Z,45.23
2019-05-16T09:33:47.369Z,39.50
2019-05-16T09:36:17.410Z,123.67
2019-05-16T09:38:48.564Z,69.65
2019-05-16T09:41:16.981Z,57.93
2019-05-16T09:43:48.551Z,42.38
2019-05-16T09:46:17.195Z,51.10
2019-05-16T09:48:47.820Z,50.05
2019-05-16T09:51:17.266Z,63.50
2019-05-16T09:53:47.180Z,42.62
2019-05-16T09:56:16.862Z,42.03
2019-05-16T09:58:46.689Z,45.78
2019-05-16T10:01:17.403Z,38.83
2019-05-16T10:03:47.734Z,42.20
2019-05-16T10:06:19.172Z,39.92
2019-05-16T10:08:46.531Z,40.55
2019-05-16T10:11:17.992Z,45.98
2019-05-16T10:13:47.099Z,44.03
2019-05-16T10:16:16.725Z,44.50
2019-05-16T10:18:47.611Z,46.28
2019-05-16T10:21:20.325Z,44.10
2019-05-16T10:23:46.997Z,44.80
2019-05-16T10:26:17.259Z,42.03
2019-05-16T10:28:46.800Z,40.17
2019-05-16T10:31:17.781Z,45.03
2019-05-16T10:33:47.795Z,46.23
2019-05-16T10:36:17.326Z,44.18
2019-05-16T10:38:48.442Z,52.53
2019-05-16T10:41:16.560Z,45.40
2019-05-16T10:43:47.296Z,49.88
2019-05-16T10:46:17.640Z,53.55
2019-05-16T10:48:46.936Z,51.25
2019-05-16T10:51:16.961Z,56.48
2019-05-16T10:54:02.612Z,62.15
2019-05-16T10:56:16.024Z,65.43
2019-05-16T10:59:04.927Z,61.75
2019-05-16T11:01:27.128Z,68.67
2019-05-16T11:03:48.824Z,64.15
2019-05-16T11:06:25.368Z,75.22
2019-05-16T11:08:46.559Z,61.60
2019-05-16T11:11:19.673Z,74.05
2019-05-16T11:13:47.199Z,59.77
2019-05-16T11:16:17.470Z,67.43
2019-05-16T11:18:46.080Z,64.30
2019-05-16T11:21:19.022Z,48.75
2019-05-16T11:23:46.955Z,55.90
2019-05-16T11:26:15.018Z,48.48
2019-05-16T11:28:43.501Z,46.60
2019-05-16T11:31:12.048Z,48.17
2019-05-16T11:33:40.510Z,46.25
2019-05-16T11:36:12.561Z,47.58
2019-05-16T11:38:39.298Z,48.90
2019-05-16T11:41:07.839Z,48.45
2019-05-16T11:43:36.752Z,51.08
2019-05-16T11:46:05.511Z,50.43
2019-05-16T11:48:34.176Z,40.15
2019-05-16T11:51:02.651Z,42.95
2019-05-16T11:53:31.270Z,41.37
2019-05-16T11:56:01.817Z,42.85
2019-05-16T11:58:30.331Z,42.23
2019-05-16T12:00:58.824Z,39.33
2019-05-16T12:03:28.267Z,40.12
2019-05-16T12:05:57.987Z,37.95
2019-05-16T12:08:26.670Z,38.23
2019-05-16T12:10:55.195Z,38.40
2019-05-16T12:13:28.553Z,46.70
2019-05-16T12:15:56.386Z,39.20
2019-05-16T12:18:26.387Z,39.38
2019-05-16T12:20:56.439Z,39.08
2019-05-16T12:23:27.349Z,36.05
2019-05-16T12:25:56.596Z,37.83
2019-05-16T12:28:27.223Z,39.13
2019-05-16T12:30:56.335Z,35.92
2019-05-16T12:33:27.496Z,37.73
2019-05-16T12:35:57.547Z,36.65
2019-05-16T12:38:27.651Z,39.92
2019-05-16T12:40:56.558Z,35.73
2019-05-16T12:43:43.701Z,34.65
2019-05-16T12:45:56.966Z,35.33
2019-05-16T12:48:25.641Z,37.13
2019-05-16T12:50:54.155Z,34.88
2019-05-16T12:53:23.501Z,33.75
2019-05-16T12:55:52.864Z,34.27
2019-05-16T12:58:26.061Z,33.45
2019-05-16T13:00:57.563Z,32.67
2019-05-16T13:03:21.822Z,33.15
2019-05-16T13:05:50.355Z,37.70
2019-05-16T13:08:18.842Z,34.50
2019-05-16T13:10:47.379Z,55.08
2019-05-16T13:13:17.713Z,32.93
2019-05-16T13:15:47.557Z,30.90
2019-05-16T13:18:17.020Z,32.60
2019-05-16T13:20:46.809Z,35.75
2019-05-16T13:23:18.115Z,34.33
2019-05-16T13:25:48.135Z,31.82
2019-05-16T13:28:16.080Z,30.37
2019-05-16T13:30:46.943Z,28.42
2019-05-16T13:33:17.521Z,28.62
2019-05-16T13:35:47.239Z,27.52
2019-05-16T13:38:17.415Z,27.30
2019-05-16T13:40:45.671Z,29.45
2019-05-16T13:43:14.225Z,30.70
2019-05-16T13:45:43.091Z,26.33
2019-05-16T13:48:11.579Z,31.17
2019-05-16T13:50:40.107Z,29.15
2019-05-16T13:53:08.575Z,30.10
2019-05-16T13:55:37.743Z,30.68
2019-05-16T13:58:07.753Z,31.00
2019-05-16T14:00:37.634Z,31.50
2019-05-16T14:03:07.477Z,29.77
2019-05-16T14:05:38.029Z,46.55
2019-05-16T14:08:06.985Z,34.67
2019-05-16T14:10:37.647Z,30.45
2019-05-16T14:13:07.583Z,29.17
2019-05-16T14:15:36.938Z,27.30
2019-05-16T14:18:07.833Z,29.10
2019-05-16T14:20:37.828Z,27.17
2019-05-16T14:23:08.628Z,30.57
2019-05-16T14:25:37.983Z,32.78
2019-05-16T14:28:07.701Z,30.35
2019-05-16T14:30:37.301Z,28.05
2019-05-16T14:33:13.209Z,29.05
2019-05-16T14:35:37.727Z,30.10
2019-05-16T14:38:06.484Z,28.10
2019-05-16T14:40:37.393Z,26.27
2019-05-16T14:43:08.351Z,35.20
2019-05-16T14:45:37.235Z,33.08
2019-05-16T14:48:07.651Z,32.57
2019-05-16T14:50:37.531Z,32.83
2019-05-16T14:53:07.426Z,35.92
2019-05-16T14:55:38.060Z,32.50
2019-05-16T14:58:07.484Z,38.77
2019-05-16T15:00:38.434Z,42.23
2019-05-16T15:03:08.222Z,42.38
2019-05-16T15:05:42.736Z,44.15
2019-05-16T15:08:08.136Z,47.93
2019-05-16T15:10:37.741Z,42.83
2019-05-16T15:13:07.915Z,47.67
2019-05-16T15:15:37.594Z,46.98
2019-05-16T15:18:08.123Z,48.13
2019-05-16T15:20:36.987Z,52.07
2019-05-16T15:23:07.723Z,49.75
2019-05-16T15:25:37.443Z,50.80
2019-05-16T15:28:07.581Z,55.12
2019-05-16T15:30:39.063Z,58.55
2019-05-16T15:33:08.482Z,60.30
2019-05-16T15:35:38.069Z,63.13
2019-05-16T15:38:07.779Z,59.38
2019-05-16T15:40:37.599Z,65.62
2019-05-16T15:43:07.816Z,57.90
2019-05-16T15:45:44.231Z,59.73
2019-05-16T15:48:12.491Z,52.53
2019-05-16T15:50:41.619Z,56.33
2019-05-16T15:53:10.282Z,55.70
2019-05-16T15:55:38.904Z,59.50
2019-05-16T15:58:10.383Z,74.47
2019-05-16T16:00:41.174Z,73.37
2019-05-16T16:03:09.710Z,108.00
2019-05-16T16:05:38.207Z,86.05
2019-05-16T16:08:07.073Z,95.53
2019-05-16T16:10:40.244Z,63.75
2019-05-16T16:13:09.172Z,58.15
2019-05-16T16:15:50.263Z,68.28
2019-05-16T16:18:09.305Z,58.90
2019-05-16T16:20:37.941Z,50.95
2019-05-16T16:23:07.113Z,52.80
2019-05-16T16:25:35.701Z,54.63
2019-05-16T16:28:07.357Z,57.67
2019-05-16T16:30:37.386Z,52.35
2019-05-16T16:33:18.976Z,51.65
2019-05-16T16:35:37.894Z,57.38
2019-05-16T16:38:07.153Z,56.65
2019-05-16T16:40:37.471Z,51.68
2019-05-16T16:43:07.954Z,49.77
2019-05-16T16:45:36.372Z,48.83
2019-05-16T16:48:07.643Z,50.43
2019-05-16T16:50:37.077Z,51.20
2019-05-16T16:53:07.176Z,46.48
2019-05-16T16:55:37.034Z,47.67
2019-05-16T16:58:09.268Z,48.92
2019-05-16T17:00:37.882Z,45.30
2019-05-16T17:03:10.111Z,49.23
2019-05-16T17:05:37.177Z,49.83
2019-05-16T17:08:07.659Z,53.60
2019-05-16T17:10:38.062Z,50.17
2019-05-16T17:13:07.133Z,53.20
2019-05-16T17:15:36.784Z,54.73
2019-05-16T17:18:07.107Z,47.95
2019-05-16T17:20:37.179Z,50.53
2019-05-16T17:23:06.934Z,48.33
2019-05-16T17:25:36.635Z,52.45
2019-05-16T17:28:06.976Z,47.83
2019-05-16T17:30:36.919Z,48.00
2019-05-16T17:33:07.771Z,49.90
2019-05-16T17:35:38.506Z,54.90
2019-05-16T17:38:06.910Z,52.93
2019-05-16T17:40:37.876Z,55.60
2019-05-16T17:43:07.258Z,50.37
2019-05-16T17:45:37.550Z,51.55
2019-05-16T17:48:06.845Z,57.33
2019-05-16T17:50:37.373Z,62.00
2019-05-16T17:53:07.286Z,60.27
2019-05-16T17:55:36.861Z,60.10
2019-05-16T17:58:08.735Z,55.48
2019-05-16T18:00:36.427Z,56.37
2019-05-16T18:03:06.668Z,56.18
2019-05-16T18:05:37.161Z,59.27
2019-05-16T18:08:07.404Z,66.90
2019-05-16T18:10:36.503Z,65.37
2019-05-16T18:13:07.711Z,74.13
2019-05-16T18:15:36.663Z,87.00
2019-05-16T18:18:07.080Z,66.37
2019-05-16T18:20:37.233Z,66.37
2019-05-16T18:23:07.111Z,62.17
2019-05-16T18:25:36.436Z,62.60
2019-05-16T18:28:07.740Z,66.65
2019-05-16T18:30:36.756Z,64.50
2019-05-16T18:33:07.374Z,62.25
2019-05-16T18:35:37.020Z,55.98
2019-05-16T18:38:07.257Z,58.20
2019-05-16T18:40:36.705Z,59.95
2019-05-16T18:43:08.400Z,62.08
2019-05-16T18:45:36.691Z,54.88
2019-05-16T18:48:07.372Z,53.98
2019-05-16T18:50:37.568Z,51.67
2019-05-16T18:53:07.284Z,51.28
2019-05-16T18:55:37.109Z,51.65
2019-05-16T18:58:08.709Z,47.93
2019-05-16T19:00:37.509Z,49.98
2019-05-16T19:03:07.669Z,50.28
2019-05-16T19:05:37.333Z,44.27
2019-05-16T19:08:07.455Z,45.33
2019-05-16T19:10:36.801Z,46.55
2019-05-16T19:13:08.187Z,44.90
2019-05-16T19:15:37.451Z,42.30
2019-05-16T19:18:07.076Z,44.05
2019-05-16T19:20:37.504Z,40.92
2019-05-16T19:23:07.503Z,42.53
2019-05-16T19:25:36.426Z,49.80
2019-05-16T19:28:09.380Z,51.58
2019-05-16T19:30:38.019Z,54.00
2019-05-16T19:33:07.215Z,56.13
2019-05-16T19:35:39.950Z,61.83
2019-05-16T19:38:10.678Z,77.32
2019-05-16T19:40:42.284Z,71.80
2019-05-16T19:43:10.916Z,66.02
2019-05-16T19:45:43.667Z,56.10
2019-05-16T19:48:12.170Z,57.15
2019-05-16T19:50:40.772Z,54.42
2019-05-16T19:53:09.307Z,51.85
2019-05-16T19:55:37.794Z,47.93
2019-05-16T19:58:07.071Z,48.87
2019-05-16T20:00:37.611Z,45.52
2019-05-16T20:03:07.693Z,46.07
2019-05-16T20:05:37.551Z,44.35
2019-05-16T20:08:06.913Z,47.85
2019-05-16T20:10:36.601Z,44.48
2019-05-16T20:13:07.770Z,41.88
2019-05-16T20:15:36.566Z,40.10
2019-05-16T20:18:07.800Z,44.10
2019-05-16T20:20:37.210Z,44.37
2019-05-16T20:23:06.436Z,46.77
2019-05-16T20:25:36.658Z,47.30
2019-05-16T20:28:08.613Z,82.67
2019-05-16T20:30:37.183Z,58.28
2019-05-16T20:33:07.002Z,63.90
2019-05-16T20:35:37.584Z,45.10
2019-05-16T20:38:06.899Z,41.85
2019-05-16T20:40:37.548Z,44.83
2019-05-16T20:43:07.698Z,43.87
2019-05-16T20:45:39.577Z,41.98
2019-05-16T20:48:12.100Z,41.98
2019-05-16T20:50:37.082Z,40.93
2019-05-16T20:53:07.287Z,40.85
2019-05-16T20:55:37.706Z,38.63
2019-05-16T20:58:07.630Z,41.48
2019-05-16T21:00:37.749Z,46.40
2019-05-16T21:03:07.266Z,38.80
2019-05-16T21:05:38.158Z,41.13
2019-05-16T21:08:06.574Z,39.63
2019-05-16T21:10:35.320Z,40.15
2019-05-16T21:13:07.147Z,47.52
2019-05-16T21:15:37.245Z,49.90
2019-05-16T21:18:07.538Z,51.77
2019-05-16T21:20:38.741Z,58.60
2019-05-16T21:23:07.291Z,45.95
2019-05-16T21:25:37.161Z,45.52
2019-05-16T21:28:07.911Z,45.10
2019-05-16T21:30:36.811Z,44.70
2019-05-16T21:33:05.463Z,42.00
2019-05-16T21:35:36.294Z,40.20
2019-05-16T21:38:08.657Z,39.37
2019-05-16T21:40:37.147Z,39.48
2019-05-16T21:43:07.561Z,39.93
2019-05-16T21:45:37.194Z,41.77
2019-05-16T21:48:07.459Z,42.03
2019-05-16T21:50:36.864Z,45.78
2019-05-16T21:53:07.244Z,44.77
2019-05-16T21:55:36.861Z,39.83
2019-05-16T21:58:05.585Z,40.98
2019-05-16T22:00:38.766Z,38.60
2019-05-16T22:03:07.914Z,39.03
2019-05-16T22:05:37.041Z,38.63
2019-05-16T22:08:07.384Z,41.18
2019-05-16T22:10:37.338Z,39.25
2019-05-16T22:13:07.739Z,39.55
2019-05-16T22:15:36.836Z,39.00
2019-05-16T22:18:07.210Z,41.10
2019-05-16T22:20:35.767Z,38.53
2019-05-16T22:23:07.047Z,41.15
2019-05-16T22:25:35.356Z,41.30
2019-05-16T22:28:06.976Z,42.48
2019-05-16T22:30:36.409Z,37.15
2019-05-16T22:33:08.847Z,38.98
2019-05-16T22:35:37.360Z,38.38
2019-05-16T22:38:06.524Z,34.40
2019-05-16T22:40:37.302Z,36.35
2019-05-16T22:43:07.229Z,36.53
2019-05-16T22:45:37.405Z,34.70
2019-05-16T22:48:07.082Z,36.17
2019-05-16T22:50:36.621Z,37.83
2019-05-16T22:53:06.368Z,39.85
2019-05-16T22:55:37.167Z,45.70
2019-05-16T22:58:07.388Z,44.27
2019-05-16T23:00:39.023Z,40.70
2019-05-16T23:03:06.761Z,45.30
2019-05-16T23:05:36.980Z,45.43
2019-05-16T23:08:09.588Z,48.00
2019-05-16T23:10:36.885Z,46.20
2019-05-16T23:13:06.854Z,46.15
2019-05-16T23:15:35.449Z,48.58
2019-05-16T23:18:06.938Z,50.30
2019-05-16T23:20:36.977Z,45.25
2019-05-16T23:23:07.243Z,39.35
2019-05-16T23:25:37.126Z,39.73
2019-05-16T23:28:07.618Z,38.90
2019-05-16T23:30:36.612Z,46.88
2019-05-16T23:33:07.107Z,50.23
2019-05-16T23:35:37.564Z,53.17
2019-05-16T23:38:18.637Z,51.85
2019-05-16T23:40:37.377Z,47.38
2019-05-16T23:43:07.584Z,49.40
2019-05-16T23:45:37.520Z,51.18
2019-05-16T23:48:10.345Z,49.80
2019-05-16T23:50:36.825Z,43.68
2019-05-16T23:53:07.267Z,37.90
2019-05-16T23:55:37.300Z,42.48
2019-05-16T23:58:06.942Z,42.60
